sensor_id;sensor_type;location;lat;lon;timestamp;temperature;humidity
16315;DHT22;8266;52.150;4.768;2023-07-20T00:01:27;20.90;99.90
16315;DHT22;8266;52.150;4.768;2023-07-20T00:03:54;20.90;99.90
16315;DHT22;8266;52.150;4.768;2023-07-20T00:06:21;20.90;99.90
16315;DHT22;8266;52.150;4.768;2023-07-20T00:08:51;20.90;99.90
16315;DHT22;8266;52.150;4.768;2023-07-20T00:11:18;20.80;99.90
16315;DHT22;8266;52.150;4.768;2023-07-20T00:13:45;20.80;99.90
16315;DHT22;8266;52.150;4.768;2023-07-20T00:16:12;20.70;99.90
16315;DHT22;8266;52.150;4.768;2023-07-20T00:18:39;20.70;99.90
16315;DHT22;8266;52.150;4.768;2023-07-20T00:21:06;20.70;99.90
16315;DHT22;8266;52.150;4.768;2023-07-20T00:23:33;20.60;99.90
16315;DHT22;8266;52.150;4.768;2023-07-20T00:26:01;20.50;99.90
16315;DHT22;8266;52.150;4.768;2023-07-20T00:28:28;20.50;99.90
16315;DHT22;8266;52.150;4.768;2023-07-20T00:30:55;20.50;99.90
16315;DHT22;8266;52.150;4.768;2023-07-20T00:33:22;20.40;99.90
16315;DHT22;8266;52.150;4.768;2023-07-20T00:35:49;20.40;99.90
16315;DHT22;8266;52.150;4.768;2023-07-20T00:38:16;20.30;99.90
16315;DHT22;8266;52.150;4.768;2023-07-20T00:40:42;20.30;99.90
16315;DHT22;8266;52.150;4.768;2023-07-20T00:43:11;20.20;99.90
16315;DHT22;8266;52.150;4.768;2023-07-20T00:45:38;20.20;99.90
16315;DHT22;8266;52.150;4.768;2023-07-20T00:48:06;20.10;99.90
16315;DHT22;8266;52.150;4.768;2023-07-20T00:50:34;20.10;99.90
16315;DHT22;8266;52.150;4.768;2023-07-20T00:53:03;20.10;99.90
16315;DHT22;8266;52.150;4.768;2023-07-20T00:55:30;20.00;99.90
16315;DHT22;8266;52.150;4.768;2023-07-20T00:57:58;19.90;99.90
16315;DHT22;8266;52.150;4.768;2023-07-20T01:00:26;19.90;99.90
16315;DHT22;8266;52.150;4.768;2023-07-20T01:02:53;19.90;99.90
16315;DHT22;8266;52.150;4.768;2023-07-20T01:05:21;19.80;99.90
16315;DHT22;8266;52.150;4.768;2023-07-20T01:07:54;19.80;99.90
16315;DHT22;8266;52.150;4.768;2023-07-20T01:10:38;19.70;99.90
16315;DHT22;8266;52.150;4.768;2023-07-20T01:13:07;19.70;99.90
16315;DHT22;8266;52.150;4.768;2023-07-20T01:15:35;19.70;99.90
16315;DHT22;8266;52.150;4.768;2023-07-20T01:18:02;19.70;99.90
16315;DHT22;8266;52.150;4.768;2023-07-20T01:20:31;19.70;99.90
16315;DHT22;8266;52.150;4.768;2023-07-20T01:23:28;19.70;99.90
16315;DHT22;8266;52.150;4.768;2023-07-20T01:26:11;19.60;99.90
16315;DHT22;8266;52.150;4.768;2023-07-20T01:29:03;19.60;99.90
16315;DHT22;8266;52.150;4.768;2023-07-20T01:31:37;19.60;99.90
16315;DHT22;8266;52.150;4.768;2023-07-20T01:34:06;19.60;99.90
16315;DHT22;8266;52.150;4.768;2023-07-20T01:36:36;19.50;99.90
16315;DHT22;8266;52.150;4.768;2023-07-20T01:39:04;19.50;99.90
16315;DHT22;8266;52.150;4.768;2023-07-20T01:41:33;19.50;99.90
16315;DHT22;8266;52.150;4.768;2023-07-20T01:44:00;19.50;99.90
16315;DHT22;8266;52.150;4.768;2023-07-20T01:46:27;19.50;99.90
16315;DHT22;8266;52.150;4.768;2023-07-20T01:48:56;19.50;99.90
16315;DHT22;8266;52.150;4.768;2023-07-20T01:51:23;19.40;99.90
16315;DHT22;8266;52.150;4.768;2023-07-20T01:53:50;19.40;99.90
16315;DHT22;8266;52.150;4.768;2023-07-20T01:56:17;19.40;99.90
16315;DHT22;8266;52.150;4.768;2023-07-20T01:58:44;19.40;99.90
16315;DHT22;8266;52.150;4.768;2023-07-20T02:01:11;19.40;99.90
16315;DHT22;8266;52.150;4.768;2023-07-20T02:03:38;19.40;99.90
16315;DHT22;8266;52.150;4.768;2023-07-20T02:06:06;19.30;99.90
16315;DHT22;8266;52.150;4.768;2023-07-20T02:08:33;19.30;99.90
16315;DHT22;8266;52.150;4.768;2023-07-20T02:11:00;19.30;99.90
16315;DHT22;8266;52.150;4.768;2023-07-20T02:13:28;19.20;99.90
16315;DHT22;8266;52.150;4.768;2023-07-20T02:15:54;19.20;99.90
16315;DHT22;8266;52.150;4.768;2023-07-20T02:18:21;19.20;99.90
16315;DHT22;8266;52.150;4.768;2023-07-20T02:20:48;19.20;99.90
16315;DHT22;8266;52.150;4.768;2023-07-20T02:23:17;19.10;99.90
16315;DHT22;8266;52.150;4.768;2023-07-20T02:25:44;19.10;99.90
16315;DHT22;8266;52.150;4.768;2023-07-20T02:28:13;19.10;99.90
16315;DHT22;8266;52.150;4.768;2023-07-20T02:30:40;19.10;99.90
16315;DHT22;8266;52.150;4.768;2023-07-20T02:33:07;19.10;99.90
16315;DHT22;8266;52.150;4.768;2023-07-20T02:35:34;19.10;99.90
16315;DHT22;8266;52.150;4.768;2023-07-20T02:38:01;19.10;99.90
16315;DHT22;8266;52.150;4.768;2023-07-20T02:40:30;19.00;99.90
16315;DHT22;8266;52.150;4.768;2023-07-20T02:42:57;19.00;99.90
16315;DHT22;8266;52.150;4.768;2023-07-20T02:45:24;19.00;99.90
16315;DHT22;8266;52.150;4.768;2023-07-20T02:47:51;19.00;99.90
16315;DHT22;8266;52.150;4.768;2023-07-20T02:50:18;19.00;99.90
16315;DHT22;8266;52.150;4.768;2023-07-20T02:52:45;18.90;99.90
16315;DHT22;8266;52.150;4.768;2023-07-20T02:55:12;18.90;99.90
16315;DHT22;8266;52.150;4.768;2023-07-20T02:57:40;18.90;99.90
16315;DHT22;8266;52.150;4.768;2023-07-20T03:00:08;18.90;99.90
16315;DHT22;8266;52.150;4.768;2023-07-20T03:02:35;18.90;99.90
16315;DHT22;8266;52.150;4.768;2023-07-20T03:05:02;18.90;99.90
16315;DHT22;8266;52.150;4.768;2023-07-20T03:07:31;18.90;99.90
16315;DHT22;8266;52.150;4.768;2023-07-20T03:09:58;18.90;99.90
16315;DHT22;8266;52.150;4.768;2023-07-20T03:12:25;18.90;99.90
16315;DHT22;8266;52.150;4.768;2023-07-20T03:14:54;18.80;99.90
16315;DHT22;8266;52.150;4.768;2023-07-20T03:17:22;18.80;99.90
16315;DHT22;8266;52.150;4.768;2023-07-20T03:19:49;18.80;99.90
16315;DHT22;8266;52.150;4.768;2023-07-20T03:22:16;18.80;99.90
16315;DHT22;8266;52.150;4.768;2023-07-20T03:24:43;18.80;99.90
16315;DHT22;8266;52.150;4.768;2023-07-20T03:27:10;18.80;99.90
16315;DHT22;8266;52.150;4.768;2023-07-20T03:29:37;18.80;99.90
16315;DHT22;8266;52.150;4.768;2023-07-20T03:32:06;18.80;99.90
16315;DHT22;8266;52.150;4.768;2023-07-20T03:34:33;18.80;99.90
16315;DHT22;8266;52.150;4.768;2023-07-20T03:37:00;18.70;99.90
16315;DHT22;8266;52.150;4.768;2023-07-20T03:39:30;18.70;99.90
16315;DHT22;8266;52.150;4.768;2023-07-20T03:41:57;18.70;99.90
16315;DHT22;8266;52.150;4.768;2023-07-20T03:44:24;18.70;99.90
16315;DHT22;8266;52.150;4.768;2023-07-20T03:46:51;18.70;99.90
16315;DHT22;8266;52.150;4.768;2023-07-20T03:49:20;18.70;99.90
16315;DHT22;8266;52.150;4.768;2023-07-20T03:51:47;18.70;99.90
16315;DHT22;8266;52.150;4.768;2023-07-20T03:54:14;18.70;99.90
16315;DHT22;8266;52.150;4.768;2023-07-20T03:56:41;18.60;99.90
16315;DHT22;8266;52.150;4.768;2023-07-20T03:59:07;18.60;99.90
16315;DHT22;8266;52.150;4.768;2023-07-20T04:01:34;18.60;99.90
16315;DHT22;8266;52.150;4.768;2023-07-20T04:04:06;18.60;99.90
16315;DHT22;8266;52.150;4.768;2023-07-20T04:06:34;18.60;99.90
16315;DHT22;8266;52.150;4.768;2023-07-20T04:09:02;18.60;99.90
16315;DHT22;8266;52.150;4.768;2023-07-20T04:11:30;18.60;99.90
16315;DHT22;8266;52.150;4.768;2023-07-20T04:13:57;18.60;99.90
16315;DHT22;8266;52.150;4.768;2023-07-20T04:16:24;18.50;99.90
16315;DHT22;8266;52.150;4.768;2023-07-20T04:18:51;18.50;99.90
16315;DHT22;8266;52.150;4.768;2023-07-20T04:21:18;18.50;99.90
16315;DHT22;8266;52.150;4.768;2023-07-20T04:23:47;18.50;99.90
16315;DHT22;8266;52.150;4.768;2023-07-20T04:26:14;18.50;99.90
16315;DHT22;8266;52.150;4.768;2023-07-20T04:28:41;18.50;99.90
16315;DHT22;8266;52.150;4.768;2023-07-20T04:31:11;18.50;99.90
16315;DHT22;8266;52.150;4.768;2023-07-20T04:33:39;18.50;99.90
16315;DHT22;8266;52.150;4.768;2023-07-20T04:36:06;18.50;99.90
16315;DHT22;8266;52.150;4.768;2023-07-20T04:38:34;18.50;99.90
16315;DHT22;8266;52.150;4.768;2023-07-20T04:41:03;18.50;99.90
16315;DHT22;8266;52.150;4.768;2023-07-20T04:43:29;18.50;99.90
16315;DHT22;8266;52.150;4.768;2023-07-20T04:45:56;18.50;99.90
16315;DHT22;8266;52.150;4.768;2023-07-20T04:48:24;18.60;99.90
16315;DHT22;8266;52.150;4.768;2023-07-20T04:50:51;18.60;99.90
16315;DHT22;8266;52.150;4.768;2023-07-20T04:53:18;18.60;99.90
16315;DHT22;8266;52.150;4.768;2023-07-20T04:55:49;18.60;99.90
16315;DHT22;8266;52.150;4.768;2023-07-20T04:58:19;18.60;99.90
16315;DHT22;8266;52.150;4.768;2023-07-20T05:00:47;18.60;99.90
16315;DHT22;8266;52.150;4.768;2023-07-20T05:03:14;18.60;99.90
16315;DHT22;8266;52.150;4.768;2023-07-20T05:05:41;18.70;99.90
16315;DHT22;8266;52.150;4.768;2023-07-20T05:08:08;18.70;99.90
16315;DHT22;8266;52.150;4.768;2023-07-20T05:10:35;18.70;99.90
16315;DHT22;8266;52.150;4.768;2023-07-20T05:13:02;18.70;99.90
16315;DHT22;8266;52.150;4.768;2023-07-20T05:15:32;18.70;99.90
16315;DHT22;8266;52.150;4.768;2023-07-20T05:18:00;18.80;99.90
16315;DHT22;8266;52.150;4.768;2023-07-20T05:20:27;18.80;99.90
16315;DHT22;8266;52.150;4.768;2023-07-20T05:22:54;18.80;99.90
16315;DHT22;8266;52.150;4.768;2023-07-20T05:25:20;18.80;99.90
16315;DHT22;8266;52.150;4.768;2023-07-20T05:27:48;18.80;99.90
16315;DHT22;8266;52.150;4.768;2023-07-20T05:30:16;18.90;99.90
16315;DHT22;8266;52.150;4.768;2023-07-20T05:32:44;18.90;99.90
16315;DHT22;8266;52.150;4.768;2023-07-20T05:35:13;18.90;99.90
16315;DHT22;8266;52.150;4.768;2023-07-20T05:37:42;18.90;99.90
16315;DHT22;8266;52.150;4.768;2023-07-20T05:40:09;19.00;99.90
16315;DHT22;8266;52.150;4.768;2023-07-20T05:42:37;19.00;99.90
16315;DHT22;8266;52.150;4.768;2023-07-20T05:45:05;19.00;99.90
16315;DHT22;8266;52.150;4.768;2023-07-20T05:47:32;19.00;99.90
16315;DHT22;8266;52.150;4.768;2023-07-20T05:50:01;19.00;99.90
16315;DHT22;8266;52.150;4.768;2023-07-20T05:52:29;19.10;99.90
16315;DHT22;8266;52.150;4.768;2023-07-20T05:54:56;19.10;99.90
16315;DHT22;8266;52.150;4.768;2023-07-20T05:57:23;19.10;99.90
16315;DHT22;8266;52.150;4.768;2023-07-20T05:59:50;19.20;99.90
16315;DHT22;8266;52.150;4.768;2023-07-20T06:02:17;19.20;99.90
16315;DHT22;8266;52.150;4.768;2023-07-20T06:04:44;19.20;99.90
16315;DHT22;8266;52.150;4.768;2023-07-20T06:07:13;19.20;99.90
16315;DHT22;8266;52.150;4.768;2023-07-20T06:09:40;19.30;99.90
16315;DHT22;8266;52.150;4.768;2023-07-20T06:12:08;19.30;99.90
16315;DHT22;8266;52.150;4.768;2023-07-20T06:14:35;19.30;99.90
16315;DHT22;8266;52.150;4.768;2023-07-20T06:17:02;19.30;99.90
16315;DHT22;8266;52.150;4.768;2023-07-20T06:19:29;19.40;99.90
16315;DHT22;8266;52.150;4.768;2023-07-20T06:21:56;19.40;99.90
16315;DHT22;8266;52.150;4.768;2023-07-20T06:24:24;19.50;99.90
16315;DHT22;8266;52.150;4.768;2023-07-20T06:26:51;19.50;99.90
16315;DHT22;8266;52.150;4.768;2023-07-20T06:29:18;19.50;99.90
16315;DHT22;8266;52.150;4.768;2023-07-20T06:31:45;19.60;99.90
16315;DHT22;8266;52.150;4.768;2023-07-20T06:34:12;19.80;99.90
16315;DHT22;8266;52.150;4.768;2023-07-20T06:36:39;20.00;99.90
16315;DHT22;8266;52.150;4.768;2023-07-20T06:39:06;20.30;99.90
16315;DHT22;8266;52.150;4.768;2023-07-20T06:41:34;20.60;99.90
16315;DHT22;8266;52.150;4.768;2023-07-20T06:44:01;21.00;99.90
16315;DHT22;8266;52.150;4.768;2023-07-20T06:46:29;21.40;99.90
16315;DHT22;8266;52.150;4.768;2023-07-20T06:48:56;21.80;99.90
16315;DHT22;8266;52.150;4.768;2023-07-20T06:51:23;22.20;99.90
16315;DHT22;8266;52.150;4.768;2023-07-20T06:53:50;22.50;99.90
16315;DHT22;8266;52.150;4.768;2023-07-20T06:56:17;22.90;99.90
16315;DHT22;8266;52.150;4.768;2023-07-20T06:58:45;23.20;99.90
16315;DHT22;8266;52.150;4.768;2023-07-20T07:01:13;23.40;99.90
16315;DHT22;8266;52.150;4.768;2023-07-20T07:03:40;23.70;99.90
16315;DHT22;8266;52.150;4.768;2023-07-20T07:06:07;23.80;99.90
16315;DHT22;8266;52.150;4.768;2023-07-20T07:08:34;24.00;99.90
16315;DHT22;8266;52.150;4.768;2023-07-20T07:11:01;24.20;99.90
16315;DHT22;8266;52.150;4.768;2023-07-20T07:13:28;24.40;99.90
16315;DHT22;8266;52.150;4.768;2023-07-20T07:15:57;24.50;99.90
16315;DHT22;8266;52.150;4.768;2023-07-20T07:18:24;24.60;99.90
16315;DHT22;8266;52.150;4.768;2023-07-20T07:20:52;24.70;99.90
16315;DHT22;8266;52.150;4.768;2023-07-20T07:23:19;24.80;99.90
16315;DHT22;8266;52.150;4.768;2023-07-20T07:25:46;25.00;99.90
16315;DHT22;8266;52.150;4.768;2023-07-20T07:28:13;25.20;99.90
16315;DHT22;8266;52.150;4.768;2023-07-20T07:30:41;25.30;99.90
16315;DHT22;8266;52.150;4.768;2023-07-20T07:33:09;25.50;99.90
16315;DHT22;8266;52.150;4.768;2023-07-20T07:35:36;25.60;99.90
16315;DHT22;8266;52.150;4.768;2023-07-20T07:38:03;25.80;99.90
16315;DHT22;8266;52.150;4.768;2023-07-20T07:40:31;25.80;99.90
16315;DHT22;8266;52.150;4.768;2023-07-20T07:42:58;25.90;99.90
16315;DHT22;8266;52.150;4.768;2023-07-20T07:45:25;25.90;99.90
16315;DHT22;8266;52.150;4.768;2023-07-20T07:47:51;25.80;99.90
16315;DHT22;8266;52.150;4.768;2023-07-20T07:50:20;25.80;99.90
16315;DHT22;8266;52.150;4.768;2023-07-20T07:52:47;25.60;99.90
16315;DHT22;8266;52.150;4.768;2023-07-20T07:55:14;25.50;99.90
16315;DHT22;8266;52.150;4.768;2023-07-20T07:57:43;25.40;99.90
16315;DHT22;8266;52.150;4.768;2023-07-20T08:00:11;25.30;99.90
16315;DHT22;8266;52.150;4.768;2023-07-20T08:02:40;25.30;99.90
16315;DHT22;8266;52.150;4.768;2023-07-20T08:05:08;25.30;99.90
16315;DHT22;8266;52.150;4.768;2023-07-20T08:07:37;25.30;99.90
16315;DHT22;8266;52.150;4.768;2023-07-20T08:10:05;25.40;99.90
16315;DHT22;8266;52.150;4.768;2023-07-20T08:12:32;25.40;99.90
16315;DHT22;8266;52.150;4.768;2023-07-20T08:14:59;25.40;99.90
16315;DHT22;8266;52.150;4.768;2023-07-20T08:17:26;25.50;99.90
16315;DHT22;8266;52.150;4.768;2023-07-20T08:19:53;25.50;99.90
16315;DHT22;8266;52.150;4.768;2023-07-20T08:22:20;25.50;99.90
16315;DHT22;8266;52.150;4.768;2023-07-20T08:24:48;25.40;99.90
16315;DHT22;8266;52.150;4.768;2023-07-20T08:27:15;25.40;99.90
16315;DHT22;8266;52.150;4.768;2023-07-20T08:29:42;25.40;99.90
16315;DHT22;8266;52.150;4.768;2023-07-20T08:32:09;25.30;99.90
16315;DHT22;8266;52.150;4.768;2023-07-20T08:34:36;25.30;99.90
16315;DHT22;8266;52.150;4.768;2023-07-20T08:37:03;25.30;99.90
16315;DHT22;8266;52.150;4.768;2023-07-20T08:39:30;25.20;99.90
16315;DHT22;8266;52.150;4.768;2023-07-20T08:41:59;25.10;99.90
16315;DHT22;8266;52.150;4.768;2023-07-20T08:44:30;25.10;99.90
16315;DHT22;8266;52.150;4.768;2023-07-20T08:47:00;25.00;99.90
16315;DHT22;8266;52.150;4.768;2023-07-20T08:49:28;25.00;99.90
16315;DHT22;8266;52.150;4.768;2023-07-20T08:51:56;25.20;99.90
16315;DHT22;8266;52.150;4.768;2023-07-20T08:54:24;25.30;99.90
16315;DHT22;8266;52.150;4.768;2023-07-20T08:56:51;25.40;98.60
16315;DHT22;8266;52.150;4.768;2023-07-20T08:59:19;25.50;98.60
16315;DHT22;8266;52.150;4.768;2023-07-20T09:01:48;25.50;97.30
16315;DHT22;8266;52.150;4.768;2023-07-20T09:04:16;25.50;96.40
16315;DHT22;8266;52.150;4.768;2023-07-20T09:06:43;25.40;95.60
16315;DHT22;8266;52.150;4.768;2023-07-20T09:09:10;25.30;95.20
16315;DHT22;8266;52.150;4.768;2023-07-20T09:11:37;25.10;95.10
16315;DHT22;8266;52.150;4.768;2023-07-20T09:14:04;25.00;95.90
16315;DHT22;8266;52.150;4.768;2023-07-20T09:16:47;24.90;95.10
16315;DHT22;8266;52.150;4.768;2023-07-20T09:19:15;24.90;96.10
16315;DHT22;8266;52.150;4.768;2023-07-20T09:21:44;25.00;97.30
16315;DHT22;8266;52.150;4.768;2023-07-20T09:24:13;25.10;97.50
16315;DHT22;8266;52.150;4.768;2023-07-20T09:26:44;25.20;97.30
16315;DHT22;8266;52.150;4.768;2023-07-20T09:29:14;25.40;97.10
16315;DHT22;8266;52.150;4.768;2023-07-20T09:31:58;25.50;98.00
16315;DHT22;8266;52.150;4.768;2023-07-20T09:34:26;25.70;98.30
16315;DHT22;8266;52.150;4.768;2023-07-20T09:36:53;25.80;98.50
16315;DHT22;8266;52.150;4.768;2023-07-20T09:39:20;26.00;98.40
16315;DHT22;8266;52.150;4.768;2023-07-20T09:41:47;26.20;97.80
16315;DHT22;8266;52.150;4.768;2023-07-20T09:44:15;26.40;98.30
16315;DHT22;8266;52.150;4.768;2023-07-20T09:46:42;26.60;97.30
16315;DHT22;8266;52.150;4.768;2023-07-20T09:49:11;26.80;97.50
16315;DHT22;8266;52.150;4.768;2023-07-20T09:51:38;26.90;96.60
16315;DHT22;8266;52.150;4.768;2023-07-20T09:54:06;27.10;96.60
16315;DHT22;8266;52.150;4.768;2023-07-20T09:56:35;27.30;96.40
16315;DHT22;8266;52.150;4.768;2023-07-20T09:59:04;27.40;96.60
16315;DHT22;8266;52.150;4.768;2023-07-20T10:01:33;27.50;96.40
16315;DHT22;8266;52.150;4.768;2023-07-20T10:04:03;27.60;95.20
16315;DHT22;8266;52.150;4.768;2023-07-20T10:06:33;27.70;95.00
16315;DHT22;8266;52.150;4.768;2023-07-20T10:09:02;27.80;93.60
16315;DHT22;8266;52.150;4.768;2023-07-20T10:11:31;27.80;92.90
16315;DHT22;8266;52.150;4.768;2023-07-20T10:13:59;27.70;92.10
16315;DHT22;8266;52.150;4.768;2023-07-20T10:16:29;27.60;92.40
16315;DHT22;8266;52.150;4.768;2023-07-20T10:19:02;27.60;92.40
16315;DHT22;8266;52.150;4.768;2023-07-20T10:21:32;27.50;91.90
16315;DHT22;8266;52.150;4.768;2023-07-20T10:24:00;27.40;91.10
16315;DHT22;8266;52.150;4.768;2023-07-20T10:26:28;27.40;91.60
16315;DHT22;8266;52.150;4.768;2023-07-20T10:28:56;27.30;92.10
16315;DHT22;8266;52.150;4.768;2023-07-20T10:31:24;27.20;91.30
16315;DHT22;8266;52.150;4.768;2023-07-20T10:33:55;27.10;91.90
16315;DHT22;8266;52.150;4.768;2023-07-20T10:36:25;27.10;91.40
16315;DHT22;8266;52.150;4.768;2023-07-20T10:38:56;27.00;91.80
16315;DHT22;8266;52.150;4.768;2023-07-20T10:41:29;27.10;91.40
16315;DHT22;8266;52.150;4.768;2023-07-20T10:44:01;27.10;92.10
16315;DHT22;8266;52.150;4.768;2023-07-20T10:46:42;27.20;91.60
16315;DHT22;8266;52.150;4.768;2023-07-20T10:49:11;27.30;91.30
16315;DHT22;8266;52.150;4.768;2023-07-20T10:51:42;27.40;91.60
16315;DHT22;8266;52.150;4.768;2023-07-20T10:54:34;27.60;92.00
16315;DHT22;8266;52.150;4.768;2023-07-20T10:57:21;27.80;92.10
16315;DHT22;8266;52.150;4.768;2023-07-20T10:59:49;27.90;90.50
16315;DHT22;8266;52.150;4.768;2023-07-20T11:02:18;28.00;90.40
16315;DHT22;8266;52.150;4.768;2023-07-20T11:04:47;28.00;84.30
16315;DHT22;8266;52.150;4.768;2023-07-20T11:10:14;28.10;88.50
16315;DHT22;8266;52.150;4.768;2023-07-20T11:13:17;28.20;90.10
16315;DHT22;8266;52.150;4.768;2023-07-20T11:15:45;28.40;88.60
16315;DHT22;8266;52.150;4.768;2023-07-20T11:18:14;28.60;89.10
16315;DHT22;8266;52.150;4.768;2023-07-20T11:20:41;28.70;88.80
16315;DHT22;8266;52.150;4.768;2023-07-20T11:23:09;28.80;86.60
16315;DHT22;8266;52.150;4.768;2023-07-20T11:25:38;28.90;85.80
16315;DHT22;8266;52.150;4.768;2023-07-20T11:28:09;29.00;85.30
16315;DHT22;8266;52.150;4.768;2023-07-20T11:30:37;29.10;85.30
16315;DHT22;8266;52.150;4.768;2023-07-20T11:33:04;29.10;84.20
16315;DHT22;8266;52.150;4.768;2023-07-20T11:35:35;29.20;83.90
16315;DHT22;8266;52.150;4.768;2023-07-20T11:38:03;29.20;81.60
16315;DHT22;8266;52.150;4.768;2023-07-20T11:40:33;29.10;80.70
16315;DHT22;8266;52.150;4.768;2023-07-20T11:43:01;29.00;81.50
16315;DHT22;8266;52.150;4.768;2023-07-20T11:45:28;29.00;82.00
16315;DHT22;8266;52.150;4.768;2023-07-20T11:47:58;29.00;83.60
16315;DHT22;8266;52.150;4.768;2023-07-20T11:50:25;29.00;82.60
16315;DHT22;8266;52.150;4.768;2023-07-20T11:52:53;29.10;81.60
16315;DHT22;8266;52.150;4.768;2023-07-20T11:55:20;29.20;82.90
16315;DHT22;8266;52.150;4.768;2023-07-20T11:58:03;29.30;82.40
16315;DHT22;8266;52.150;4.768;2023-07-20T12:00:31;29.40;79.60
16315;DHT22;8266;52.150;4.768;2023-07-20T12:03:01;29.50;81.30
16315;DHT22;8266;52.150;4.768;2023-07-20T12:05:28;29.60;79.70
16315;DHT22;8266;52.150;4.768;2023-07-20T12:07:55;29.60;78.90
16315;DHT22;8266;52.150;4.768;2023-07-20T12:10:26;29.60;78.90
16315;DHT22;8266;52.150;4.768;2023-07-20T12:12:54;29.60;78.30
16315;DHT22;8266;52.150;4.768;2023-07-20T12:15:24;29.50;78.00
16315;DHT22;8266;52.150;4.768;2023-07-20T12:17:53;29.40;77.50
16315;DHT22;8266;52.150;4.768;2023-07-20T12:20:28;29.30;76.00
16315;DHT22;8266;52.150;4.768;2023-07-20T12:22:58;29.20;74.30
16315;DHT22;8266;52.150;4.768;2023-07-20T12:25:38;29.10;75.10
16315;DHT22;8266;52.150;4.768;2023-07-20T12:28:07;29.00;75.20
16315;DHT22;8266;52.150;4.768;2023-07-20T12:30:36;28.90;75.50
16315;DHT22;8266;52.150;4.768;2023-07-20T12:33:03;28.80;76.70
16315;DHT22;8266;52.150;4.768;2023-07-20T12:35:31;28.70;77.30
16315;DHT22;8266;52.150;4.768;2023-07-20T12:37:58;28.70;78.60
16315;DHT22;8266;52.150;4.768;2023-07-20T12:40:25;28.80;78.20
16315;DHT22;8266;52.150;4.768;2023-07-20T12:42:52;28.90;77.30
16315;DHT22;8266;52.150;4.768;2023-07-20T12:45:19;29.00;77.10
16315;DHT22;8266;52.150;4.768;2023-07-20T12:47:48;29.00;76.80
16315;DHT22;8266;52.150;4.768;2023-07-20T12:50:15;29.10;76.50
16315;DHT22;8266;52.150;4.768;2023-07-20T12:52:42;29.20;76.50
16315;DHT22;8266;52.150;4.768;2023-07-20T12:55:09;29.30;76.80
16315;DHT22;8266;52.150;4.768;2023-07-20T12:57:37;29.40;76.40
16315;DHT22;8266;52.150;4.768;2023-07-20T13:00:06;29.40;74.40
16315;DHT22;8266;52.150;4.768;2023-07-20T13:02:34;29.50;73.60
16315;DHT22;8266;52.150;4.768;2023-07-20T13:05:03;29.40;74.50
16315;DHT22;8266;52.150;4.768;2023-07-20T13:07:31;29.40;73.20
16315;DHT22;8266;52.150;4.768;2023-07-20T13:09:58;29.30;72.30
16315;DHT22;8266;52.150;4.768;2023-07-20T13:12:26;29.30;72.10
16315;DHT22;8266;52.150;4.768;2023-07-20T13:14:54;29.30;72.60
16315;DHT22;8266;52.150;4.768;2023-07-20T13:17:21;29.30;71.20
16315;DHT22;8266;52.150;4.768;2023-07-20T13:19:47;29.20;70.60
16315;DHT22;8266;52.150;4.768;2023-07-20T13:22:16;29.30;71.60
16315;DHT22;8266;52.150;4.768;2023-07-20T13:24:45;29.30;72.40
16315;DHT22;8266;52.150;4.768;2023-07-20T13:27:14;29.30;73.00
16315;DHT22;8266;52.150;4.768;2023-07-20T13:29:41;29.40;72.60
16315;DHT22;8266;52.150;4.768;2023-07-20T13:32:09;29.40;72.40
16315;DHT22;8266;52.150;4.768;2023-07-20T13:34:36;29.50;71.40
16315;DHT22;8266;52.150;4.768;2023-07-20T13:37:03;29.60;71.60
16315;DHT22;8266;52.150;4.768;2023-07-20T13:39:32;29.60;70.70
16315;DHT22;8266;52.150;4.768;2023-07-20T13:41:59;29.70;70.80
16315;DHT22;8266;52.150;4.768;2023-07-20T13:44:29;29.80;70.80
16315;DHT22;8266;52.150;4.768;2023-07-20T13:46:56;29.80;69.90
16315;DHT22;8266;52.150;4.768;2023-07-20T13:49:23;29.80;68.70
16315;DHT22;8266;52.150;4.768;2023-07-20T13:51:50;29.80;68.00
16315;DHT22;8266;52.150;4.768;2023-07-20T13:54:17;29.80;67.80
16315;DHT22;8266;52.150;4.768;2023-07-20T13:56:46;29.80;69.50
16315;DHT22;8266;52.150;4.768;2023-07-20T13:59:13;29.70;67.70
16315;DHT22;8266;52.150;4.768;2023-07-20T14:01:39;29.70;67.50
16315;DHT22;8266;52.150;4.768;2023-07-20T14:04:07;29.60;66.30
16315;DHT22;8266;52.150;4.768;2023-07-20T14:06:35;29.60;66.40
16315;DHT22;8266;52.150;4.768;2023-07-20T14:09:02;29.50;67.80
16315;DHT22;8266;52.150;4.768;2023-07-20T14:11:29;29.50;67.60
16315;DHT22;8266;52.150;4.768;2023-07-20T14:13:58;29.50;66.60
16315;DHT22;8266;52.150;4.768;2023-07-20T14:16:25;29.40;66.40
16315;DHT22;8266;52.150;4.768;2023-07-20T14:18:52;29.40;65.80
16315;DHT22;8266;52.150;4.768;2023-07-20T14:21:20;29.40;66.00
16315;DHT22;8266;52.150;4.768;2023-07-20T14:23:48;29.30;65.40
16315;DHT22;8266;52.150;4.768;2023-07-20T14:26:16;29.20;65.20
16315;DHT22;8266;52.150;4.768;2023-07-20T14:28:43;29.10;65.30
16315;DHT22;8266;52.150;4.768;2023-07-20T14:31:11;29.00;65.00
16315;DHT22;8266;52.150;4.768;2023-07-20T14:33:39;29.00;65.00
16315;DHT22;8266;52.150;4.768;2023-07-20T14:36:06;29.00;65.00
16315;DHT22;8266;52.150;4.768;2023-07-20T14:38:34;28.90;64.80
16315;DHT22;8266;52.150;4.768;2023-07-20T14:41:01;28.90;64.60
16315;DHT22;8266;52.150;4.768;2023-07-20T14:43:28;28.90;63.80
16315;DHT22;8266;52.150;4.768;2023-07-20T14:45:55;28.80;64.60
16315;DHT22;8266;52.150;4.768;2023-07-20T14:48:23;28.70;64.60
16315;DHT22;8266;52.150;4.768;2023-07-20T14:50:50;28.70;65.50
16315;DHT22;8266;52.150;4.768;2023-07-20T14:53:17;28.70;65.60
16315;DHT22;8266;52.150;4.768;2023-07-20T14:55:44;28.60;65.30
16315;DHT22;8266;52.150;4.768;2023-07-20T14:58:11;28.60;64.80
16315;DHT22;8266;52.150;4.768;2023-07-20T15:00:38;28.60;65.20
16315;DHT22;8266;52.150;4.768;2023-07-20T15:03:05;28.60;64.90
16315;DHT22;8266;52.150;4.768;2023-07-20T15:05:36;28.60;65.10
16315;DHT22;8266;52.150;4.768;2023-07-20T15:08:04;28.60;66.20
16315;DHT22;8266;52.150;4.768;2023-07-20T15:10:31;28.60;65.30
16315;DHT22;8266;52.150;4.768;2023-07-20T15:12:59;28.60;65.50
16315;DHT22;8266;52.150;4.768;2023-07-20T15:15:26;28.50;66.00
16315;DHT22;8266;52.150;4.768;2023-07-20T15:17:53;28.50;65.70
16315;DHT22;8266;52.150;4.768;2023-07-20T15:20:20;28.50;65.70
16315;DHT22;8266;52.150;4.768;2023-07-20T15:22:48;28.40;65.00
16315;DHT22;8266;52.150;4.768;2023-07-20T15:25:15;28.40;64.80
16315;DHT22;8266;52.150;4.768;2023-07-20T15:27:43;28.30;64.70
16315;DHT22;8266;52.150;4.768;2023-07-20T15:30:10;28.20;65.30
16315;DHT22;8266;52.150;4.768;2023-07-20T15:32:38;28.20;64.50
16315;DHT22;8266;52.150;4.768;2023-07-20T15:35:06;28.10;64.20
16315;DHT22;8266;52.150;4.768;2023-07-20T15:37:34;28.10;64.60
16315;DHT22;8266;52.150;4.768;2023-07-20T15:40:05;28.10;65.30
16315;DHT22;8266;52.150;4.768;2023-07-20T15:42:32;28.10;65.60
16315;DHT22;8266;52.150;4.768;2023-07-20T15:44:59;28.10;65.40
16315;DHT22;8266;52.150;4.768;2023-07-20T15:47:26;28.10;65.80
16315;DHT22;8266;52.150;4.768;2023-07-20T15:49:54;28.00;65.80
16315;DHT22;8266;52.150;4.768;2023-07-20T15:52:20;28.10;64.50
16315;DHT22;8266;52.150;4.768;2023-07-20T15:54:49;28.00;65.70